createdAt,value
2023-01-11T00:02:17.876Z,2.12
2023-01-11T00:05:19.421Z,2.12
2023-01-11T00:08:22.091Z,2.13
2023-01-11T00:11:23.615Z,2.11
2023-01-11T00:14:25.185Z,2.13
2023-01-11T00:17:29.204Z,2.12
2023-01-11T00:20:30.937Z,2.13
2023-01-11T00:23:33.878Z,2.13
2023-01-11T00:26:35.442Z,2.13
2023-01-11T00:29:37.011Z,2.14
2023-01-11T00:32:38.599Z,2.16
2023-01-11T00:35:40.193Z,2.15
2023-01-11T00:38:46.459Z,2.18
2023-01-11T00:42:06.385Z,2.19
2023-01-11T00:45:26.626Z,2.24
2023-01-11T00:48:28.209Z,2.25
2023-01-11T00:51:29.743Z,2.29
2023-01-11T00:54:31.319Z,2.32
2023-01-11T00:57:32.857Z,2.34
2023-01-11T01:00:34.438Z,2.35
2023-01-11T01:03:35.981Z,2.33
2023-01-11T01:06:37.583Z,2.38
2023-01-11T01:09:39.160Z,2.40
2023-01-11T01:12:59.423Z,2.34
2023-01-11T01:16:00.994Z,2.45
2023-01-11T01:19:03.672Z,2.47
2023-01-11T01:22:05.311Z,2.50
2023-01-11T01:25:07.148Z,2.51
2023-01-11T01:28:08.705Z,2.51
2023-01-11T01:31:10.302Z,2.52
2023-01-11T01:34:12.407Z,2.57
2023-01-11T01:37:15.864Z,2.60
2023-01-11T01:40:17.552Z,2.63
2023-01-11T01:43:19.122Z,2.65
2023-01-11T01:46:23.130Z,2.67
2023-01-11T01:49:24.692Z,2.69
2023-01-11T01:52:29.231Z,2.73
2023-01-11T01:55:35.744Z,2.72
2023-01-11T01:58:47.052Z,2.74
2023-01-11T02:01:49.967Z,2.78
2023-01-11T02:04:54.752Z,2.79
2023-01-11T02:07:59.721Z,2.81
2023-01-11T02:11:03.365Z,2.75
2023-01-11T02:14:09.854Z,2.82
2023-01-11T02:17:11.755Z,2.85
2023-01-11T02:20:41.890Z,2.87
2023-01-11T02:24:15.624Z,2.83
2023-01-11T02:27:33.489Z,2.87
2023-01-11T02:30:49.122Z,2.90
2023-01-11T02:34:02.791Z,2.91
2023-01-11T02:37:19.489Z,2.92
2023-01-11T02:40:33.136Z,2.92
2023-01-11T02:44:10.299Z,2.92
2023-01-11T02:47:18.966Z,2.94
2023-01-11T02:50:34.682Z,2.98
2023-01-11T02:53:43.583Z,3.02
2023-01-11T02:56:49.672Z,3.09
2023-01-11T02:59:51.766Z,3.17
2023-01-11T03:03:21.796Z,3.24
2023-01-11T03:06:31.794Z,3.35
2023-01-11T03:10:04.917Z,3.43
2023-01-11T03:13:22.491Z,3.53
2023-01-11T03:16:51.792Z,3.64
2023-01-11T03:19:59.304Z,3.64
2023-01-11T03:23:24.372Z,3.76
2023-01-11T03:26:34.719Z,3.82
2023-01-11T03:29:59.384Z,3.86
2023-01-11T03:33:10.796Z,3.91
2023-01-11T03:36:36.521Z,3.94
2023-01-11T03:39:50.456Z,3.98
2023-01-11T03:43:12.713Z,3.99
2023-01-11T03:46:29.474Z,3.98
2023-01-11T03:49:40.799Z,3.96
2023-01-11T03:52:43.796Z,3.91
2023-01-11T03:55:49.650Z,3.93
2023-01-11T03:58:51.207Z,3.91
2023-01-11T04:01:54.265Z,3.93
2023-01-11T04:04:55.841Z,3.98
2023-01-11T04:07:57.499Z,4.03
2023-01-11T04:10:59.633Z,4.09
2023-01-11T04:14:01.505Z,4.14
2023-01-11T04:17:03.940Z,4.19
2023-01-11T04:20:06.089Z,4.24
2023-01-11T04:23:10.369Z,4.30
2023-01-11T04:26:11.988Z,4.38
2023-01-11T04:29:13.655Z,4.42
2023-01-11T04:32:15.194Z,4.40
2023-01-11T04:35:17.350Z,4.51
2023-01-11T04:38:18.944Z,4.53
2023-01-11T04:41:39.614Z,4.62
2023-01-11T04:44:41.248Z,4.64
2023-01-11T04:47:43.694Z,4.70
2023-01-11T04:50:48.932Z,4.75
2023-01-11T04:53:50.591Z,4.80
2023-01-11T04:56:52.184Z,4.86
2023-01-11T04:59:54.564Z,4.90
2023-01-11T05:02:59.066Z,4.93
2023-01-11T05:06:01.842Z,5.00
2023-01-11T05:09:04.638Z,5.05
2023-01-11T05:12:06.324Z,5.08
2023-01-11T05:15:09.596Z,5.20
2023-01-11T05:18:11.119Z,5.20
2023-01-11T05:21:14.677Z,5.31
2023-01-11T05:24:16.759Z,5.34
2023-01-11T05:27:18.319Z,5.41
2023-01-11T05:30:19.875Z,5.42
2023-01-11T05:33:21.474Z,5.48
2023-01-11T05:36:25.223Z,5.52
2023-01-11T05:39:27.325Z,5.54
2023-01-11T05:42:28.845Z,5.58
2023-01-11T05:45:32.152Z,5.64
2023-01-11T05:48:34.656Z,5.66
2023-01-11T05:51:38.095Z,5.73
2023-01-11T05:54:40.530Z,5.74
2023-01-11T05:57:43.103Z,5.81
2023-01-11T06:00:48.779Z,5.82
2023-01-11T06:03:50.778Z,5.82
2023-01-11T06:06:53.660Z,5.84
2023-01-11T06:09:55.717Z,5.88
2023-01-11T06:13:17.637Z,5.91
2023-01-11T06:16:22.412Z,5.92
2023-01-11T06:19:24.138Z,5.97
2023-01-11T06:22:26.182Z,5.98
2023-01-11T06:25:28.239Z,6.02
2023-01-11T06:28:30.039Z,6.03
2023-01-11T06:31:31.673Z,6.08
2023-01-11T06:34:33.799Z,6.12
2023-01-11T06:37:35.806Z,6.14
2023-01-11T06:40:39.301Z,6.16
2023-01-11T06:43:42.052Z,6.19
2023-01-11T06:46:44.449Z,6.22
2023-01-11T06:49:46.017Z,6.21
2023-01-11T06:52:59.171Z,6.27
2023-01-11T06:56:01.142Z,6.32
2023-01-11T06:59:03.525Z,6.31
2023-01-11T07:02:06.528Z,6.34
2023-01-11T07:05:08.607Z,6.36
2023-01-11T07:08:10.426Z,6.37
2023-01-11T07:11:12.709Z,6.37
2023-01-11T07:14:19.895Z,6.39
2023-01-11T07:17:22.372Z,6.38
2023-01-11T07:20:25.283Z,6.39
2023-01-11T07:23:27.203Z,6.37
2023-01-11T07:26:29.763Z,6.39
2023-01-11T07:29:31.350Z,6.38
2023-01-11T07:32:32.942Z,6.35
2023-01-11T07:35:35.347Z,6.39
2023-01-11T07:38:37.311Z,6.41
2023-01-11T07:41:57.524Z,6.43
2023-01-11T07:44:59.138Z,6.48
2023-01-11T07:48:02.928Z,6.54
2023-01-11T07:51:04.953Z,6.56
2023-01-11T07:54:07.635Z,6.60
2023-01-11T07:57:09.160Z,6.65
2023-01-11T08:00:12.811Z,6.69
2023-01-11T08:03:14.634Z,6.74
2023-01-11T08:06:17.126Z,6.82
2023-01-11T08:09:19.083Z,6.90
2023-01-11T08:12:39.306Z,6.91
2023-01-11T08:15:42.680Z,7.01
2023-01-11T08:18:44.891Z,7.03
2023-01-11T08:21:47.180Z,7.11
2023-01-11T08:24:48.723Z,7.17
2023-01-11T08:27:50.368Z,7.21
2023-01-11T08:30:51.972Z,7.27
2023-01-11T08:33:54.105Z,7.30
2023-01-11T08:36:57.512Z,7.32
2023-01-11T08:39:59.668Z,7.38
2023-01-11T08:43:01.714Z,7.42
2023-01-11T08:46:03.482Z,7.47
2023-01-11T08:49:12.431Z,7.48
2023-01-11T08:52:14.871Z,7.49
2023-01-11T08:55:16.952Z,7.50
2023-01-11T08:58:21.478Z,7.53
2023-01-11T09:01:23.602Z,7.57
2023-01-11T09:04:25.999Z,7.60
2023-01-11T09:07:27.625Z,7.64
2023-01-11T09:10:29.916Z,7.68
2023-01-11T09:13:31.798Z,7.68
2023-01-11T09:16:33.968Z,7.70
2023-01-11T09:19:35.573Z,7.73
2023-01-11T09:22:37.727Z,7.79
2023-01-11T09:25:39.680Z,7.84
2023-01-11T09:28:41.677Z,7.89
2023-01-11T09:31:44.315Z,7.96
2023-01-11T09:34:49.513Z,8.01
2023-01-11T09:37:54.479Z,8.08
2023-01-11T09:41:09.193Z,8.15
2023-01-11T09:44:19.547Z,8.25
2023-01-11T09:47:53.367Z,8.34
2023-01-11T09:50:58.102Z,8.37
2023-01-11T09:54:02.042Z,8.44
2023-01-11T09:57:13.163Z,8.50
2023-01-11T10:00:27.548Z,8.56
2023-01-11T10:04:06.493Z,8.62
2023-01-11T10:18:37.502Z,8.81
2023-01-11T10:19:33.391Z,8.88
2023-01-11T10:22:33.685Z,8.95
2023-01-11T10:25:50.264Z,8.99
2023-01-11T10:29:19.267Z,9.01
2023-01-11T10:32:49.960Z,9.06
2023-01-11T10:36:21.440Z,9.08
2023-01-11T10:39:35.906Z,9.12
2023-01-11T10:42:48.581Z,9.12
2023-01-11T10:46:11.127Z,9.14
2023-01-11T10:49:36.051Z,9.18
2023-01-11T10:52:55.769Z,9.19
2023-01-11T10:56:08.916Z,9.18
2023-01-11T10:59:17.073Z,9.19
2023-01-11T11:02:31.338Z,9.20
2023-01-11T11:05:40.358Z,9.21
2023-01-11T11:09:01.763Z,9.21
2023-01-11T11:12:34.858Z,9.23
2023-01-11T11:16:01.253Z,9.24
2023-01-11T11:19:03.083Z,9.19
2023-01-11T11:22:04.691Z,9.23
2023-01-11T11:25:23.022Z,9.23
2023-01-11T11:28:31.900Z,9.23
2023-01-11T11:31:37.605Z,9.23
2023-01-11T11:34:47.087Z,9.25
2023-01-11T11:37:48.734Z,9.21
2023-01-11T11:41:08.735Z,9.20
2023-01-11T11:44:18.150Z,9.20
2023-01-11T11:47:20.173Z,9.21
2023-01-11T11:50:43.321Z,9.20
2023-01-11T11:53:53.450Z,9.19
2023-01-11T11:56:58.489Z,9.18
2023-01-11T12:00:30.938Z,9.18
2023-01-11T12:03:34.179Z,9.20
2023-01-11T12:06:35.723Z,9.20
2023-01-11T12:09:44.412Z,9.24
2023-01-11T12:12:55.559Z,9.25
2023-01-11T12:16:03.621Z,9.27
2023-01-11T12:19:35.183Z,9.33
2023-01-11T12:22:37.160Z,9.36
2023-01-11T12:25:45.987Z,9.38
2023-01-11T12:29:20.408Z,9.42
2023-01-11T12:32:25.129Z,9.42
2023-01-11T12:35:51.672Z,9.43
2023-01-11T12:39:05.135Z,9.46
2023-01-11T12:42:26.454Z,9.45
2023-01-11T12:45:50.323Z,9.49
2023-01-11T12:49:14.284Z,9.48
2023-01-11T12:52:27.660Z,9.50
2023-01-11T12:55:48.437Z,9.52
2023-01-11T12:58:56.785Z,9.52
2023-01-11T13:02:07.634Z,9.50
2023-01-11T13:05:27.254Z,9.50
2023-01-11T13:08:48.092Z,9.49
2023-01-11T13:11:56.040Z,9.48
2023-01-11T13:15:11.391Z,9.50
2023-01-11T13:18:44.352Z,9.49
2023-01-11T13:21:53.567Z,9.47
2023-01-11T13:24:56.634Z,9.46
2023-01-11T13:28:02.851Z,9.44
2023-01-11T13:31:07.468Z,9.42
2023-01-11T13:34:22.493Z,9.44
2023-01-11T13:37:43.317Z,9.47
2023-01-11T13:40:53.186Z,9.47
2023-01-11T13:44:12.802Z,9.45
2023-01-11T13:47:21.056Z,9.45
2023-01-11T13:50:32.202Z,9.42
2023-01-11T13:53:43.445Z,9.38
2023-01-11T13:57:05.494Z,9.34
2023-01-11T14:00:22.095Z,9.29
2023-01-11T14:03:42.663Z,9.23
2023-01-11T14:06:58.228Z,9.16
2023-01-11T14:10:26.403Z,9.12
2023-01-11T14:14:13.403Z,9.06
2023-01-11T14:17:51.696Z,9.00
2023-01-11T14:21:14.407Z,8.94
2023-01-11T14:24:18.550Z,8.89
2023-01-11T14:27:41.147Z,8.84
2023-01-11T14:31:39.262Z,8.79
2023-01-11T14:34:59.021Z,8.75
2023-01-11T14:38:46.298Z,8.70
2023-01-11T14:42:03.161Z,8.65
2023-01-11T14:45:46.795Z,8.59
2023-01-11T14:49:02.878Z,8.57
2023-01-11T14:52:39.726Z,8.49
2023-01-11T14:55:47.866Z,8.47
2023-01-11T14:59:05.336Z,8.42
2023-01-11T15:02:15.625Z,8.36
2023-01-11T15:05:38.896Z,8.32
2023-01-11T15:08:49.860Z,8.26
2023-01-11T15:11:52.050Z,8.22
2023-01-11T15:15:22.546Z,8.20
2023-01-11T15:18:26.562Z,8.14
2023-01-11T15:21:28.209Z,8.11
2023-01-11T15:24:34.079Z,8.03
2023-01-11T15:27:38.412Z,8.04
2023-01-11T15:30:40.110Z,8.02
2023-01-11T15:33:47.029Z,7.99
2023-01-11T15:37:01.588Z,7.98
2023-01-11T15:40:09.039Z,7.99
2023-01-11T15:43:45.410Z,7.95
2023-01-11T15:47:05.597Z,7.91
2023-01-11T15:51:03.223Z,7.88
2023-01-11T15:54:38.438Z,7.88
2023-01-11T15:57:56.421Z,7.84
2023-01-11T16:01:07.198Z,7.82
2023-01-11T16:04:27.387Z,7.79
2023-01-11T16:07:45.578Z,7.78
2023-01-11T16:11:06.005Z,7.75
2023-01-11T16:14:30.335Z,7.73
2023-01-11T16:17:32.408Z,7.69
2023-01-11T16:20:35.303Z,7.72
2023-01-11T16:23:38.895Z,7.73
2023-01-11T16:26:41.779Z,7.74
2023-01-11T16:29:49.965Z,7.75
2023-01-11T16:32:51.701Z,7.75
2023-01-11T16:36:11.934Z,7.75
2023-01-11T16:39:14.667Z,7.73
2023-01-11T16:42:16.472Z,7.71
2023-01-11T16:45:38.726Z,7.69
2023-01-11T16:48:40.304Z,7.66
2023-01-11T16:51:41.965Z,7.64
2023-01-11T16:54:43.567Z,7.62
2023-01-11T16:57:50.214Z,7.59
2023-01-11T17:01:07.081Z,7.56
2023-01-11T17:04:32.243Z,7.53
2023-01-11T17:07:33.925Z,7.54
2023-01-11T17:10:35.706Z,7.53
2023-01-11T17:14:05.855Z,7.53
2023-01-11T17:17:10.645Z,7.54
2023-01-11T17:20:20.496Z,7.48
2023-01-11T17:23:22.166Z,7.47
2023-01-11T17:26:27.811Z,7.47
2023-01-11T17:29:37.927Z,7.47
2023-01-11T17:32:43.832Z,7.44
2023-01-11T17:35:45.463Z,7.42
2023-01-11T17:38:47.144Z,7.43
2023-01-11T17:42:07.917Z,7.39
2023-01-11T17:45:20.603Z,7.40
2023-01-11T17:48:23.227Z,7.40
2023-01-11T17:51:32.075Z,7.41
2023-01-11T17:54:33.663Z,7.40
2023-01-11T17:57:35.237Z,7.41
2023-01-11T18:00:37.386Z,7.39
2023-01-11T18:03:57.224Z,7.38
2023-01-11T18:07:06.722Z,7.38
2023-01-11T18:10:18.496Z,7.40
2023-01-11T18:13:31.485Z,7.35
2023-01-11T18:16:33.682Z,7.37
2023-01-11T18:19:41.709Z,7.33
2023-01-11T18:22:58.730Z,7.37
2023-01-11T18:26:29.489Z,7.37
2023-01-11T18:29:37.115Z,7.34
2023-01-11T18:32:43.254Z,7.35
2023-01-11T18:35:47.163Z,7.33
2023-01-11T18:38:49.459Z,7.33
2023-01-11T18:42:09.442Z,7.29
2023-01-11T18:45:11.635Z,7.33
2023-01-11T18:48:15.416Z,7.34
2023-01-11T18:51:21.726Z,7.31
2023-01-11T18:54:23.292Z,7.31
2023-01-11T18:57:24.958Z,7.30
2023-01-11T19:00:26.524Z,7.32
2023-01-11T19:03:28.215Z,7.30
2023-01-11T19:06:29.779Z,7.30
2023-01-11T19:09:31.301Z,7.29
2023-01-11T19:12:32.947Z,7.29
2023-01-11T19:15:35.631Z,7.20
2023-01-11T19:18:37.197Z,7.27
2023-01-11T19:21:38.723Z,7.26
2023-01-11T19:24:40.385Z,7.24
2023-01-11T19:27:41.976Z,7.25
2023-01-11T19:30:43.476Z,7.19
2023-01-11T19:33:45.312Z,7.24
2023-01-11T19:36:48.153Z,7.23
2023-01-11T19:39:49.758Z,7.23
2023-01-11T19:42:52.408Z,7.23
2023-01-11T19:45:57.882Z,7.22
2023-01-11T19:48:59.515Z,7.20
2023-01-11T19:52:01.159Z,7.19
2023-01-11T19:55:02.742Z,7.18
2023-01-11T19:58:05.324Z,7.16
2023-01-11T20:01:11.821Z,7.14
2023-01-11T20:04:16.368Z,7.12
2023-01-11T20:07:18.219Z,7.07
2023-01-11T20:10:19.870Z,7.12
2023-01-11T20:13:21.574Z,7.10
2023-01-11T20:16:23.978Z,7.09
2023-01-11T20:19:26.067Z,7.06
2023-01-11T20:22:28.588Z,7.06
2023-01-11T20:25:30.220Z,7.04
2023-01-11T20:28:32.499Z,7.03
2023-01-11T20:31:35.624Z,6.97
2023-01-11T20:34:37.327Z,6.97
2023-01-11T20:37:38.962Z,7.00
2023-01-11T20:40:40.872Z,6.99
2023-01-11T20:43:42.399Z,6.98
2023-01-11T20:46:47.532Z,6.99
2023-01-11T20:49:49.446Z,6.98
2023-01-11T20:52:51.512Z,6.98
2023-01-11T20:55:53.059Z,6.94
2023-01-11T20:58:54.645Z,6.98
2023-01-11T21:01:56.247Z,6.98
2023-01-11T21:04:57.995Z,6.93
2023-01-11T21:07:59.530Z,6.94
2023-01-11T21:11:05.958Z,6.90
2023-01-11T21:14:11.908Z,6.88
2023-01-11T21:17:13.589Z,6.86
2023-01-11T21:20:15.535Z,6.85
2023-01-11T21:23:17.062Z,6.83
2023-01-11T21:26:18.989Z,6.82
2023-01-11T21:29:20.716Z,6.82
2023-01-11T21:32:22.389Z,6.81
2023-01-11T21:35:24.059Z,6.81
2023-01-11T21:38:25.615Z,6.80
2023-01-11T21:41:47.895Z,6.80
2023-01-11T21:44:49.485Z,6.80
2023-01-11T21:47:51.019Z,6.78
2023-01-11T21:50:52.598Z,6.78
2023-01-11T21:53:54.158Z,6.79
2023-01-11T21:56:55.805Z,6.80
2023-01-11T21:59:57.406Z,6.79
2023-01-11T22:02:59.003Z,6.80
2023-01-11T22:06:02.030Z,6.78
2023-01-11T22:09:05.034Z,6.77
2023-01-11T22:12:06.708Z,6.75
2023-01-11T22:15:09.256Z,6.66
2023-01-11T22:18:11.687Z,6.70
2023-01-11T22:21:18.491Z,6.69
2023-01-11T22:24:20.829Z,6.66
2023-01-11T22:27:22.800Z,6.63
2023-01-11T22:30:24.331Z,6.61
2023-01-11T22:33:25.868Z,6.60
2023-01-11T22:36:28.880Z,6.56
2023-01-11T22:39:30.450Z,6.52
2023-01-11T22:42:32.049Z,6.48
2023-01-11T22:45:33.574Z,6.44
2023-01-11T22:48:35.121Z,6.44
2023-01-11T22:51:36.946Z,6.42
2023-01-11T22:54:38.484Z,6.38
2023-01-11T22:57:40.154Z,6.37
2023-01-11T23:00:41.713Z,6.36
2023-01-11T23:03:45.178Z,6.34
2023-01-11T23:06:46.772Z,6.35
2023-01-11T23:09:48.309Z,6.33
2023-01-11T23:13:08.264Z,6.30
2023-01-11T23:16:09.865Z,6.26
2023-01-11T23:19:13.203Z,6.24
2023-01-11T23:22:15.666Z,6.22
2023-01-11T23:25:17.219Z,6.19
2023-01-11T23:28:18.784Z,6.15
2023-01-11T23:31:23.198Z,6.13
2023-01-11T23:34:24.771Z,6.10
2023-01-11T23:37:26.343Z,6.03
2023-01-11T23:40:27.842Z,6.03
2023-01-11T23:43:29.391Z,6.03
2023-01-11T23:46:49.326Z,6.02
2023-01-11T23:49:53.837Z,5.98
2023-01-11T23:52:55.378Z,5.97
2023-01-11T23:55:56.897Z,5.90
2023-01-11T23:58:58.578Z,5.88
